Time;durP1;ratioP1;P1;durP2;ratioP2;P2;SDS_P1;SDS_P2;PMS_P1;PMS_P2;Temp;Humidity;BMP_temperature;BMP_pressure;BME280_temperature;BME280_humidity;BME280_pressure;Samples;Min_cycle;Max_cycle;Signal;HPM_P1;HPM_P2
2023/12/27 00:00:38;;;;;;;3.97;3.08;;;;;;;;;;2078349;28;20026;-74
2023/12/27 00:01:57;;;;;;;3.40;3.10;;;;;;;;;;2071698;28;20403;-75
2023/12/27 00:03:16;;;;;;;4.43;3.20;;;;;;;;;;2077071;28;20026;-74
2023/12/27 00:04:35;;;;;;;3.22;2.88;;;;;;;;;;2072289;28;20057;-74
2023/12/27 00:05:54;;;;;;;5.20;2.33;;;;;;;;;;2074725;28;20431;-74
2023/12/27 00:07:12;;;;;;;3.20;2.90;;;;;;;;;;2079826;28;20395;-74
2023/12/27 00:08:31;;;;;;;3.17;2.85;;;;;;;;;;2074842;28;20121;-75
2023/12/27 00:09:50;;;;;;;4.53;3.15;;;;;;;;;;2077041;28;20026;-74
2023/12/27 00:11:09;;;;;;;3.22;2.60;;;;;;;;;;2072894;28;20382;-74
2023/12/27 00:12:28;;;;;;;3.25;2.65;;;;;;;;;;2077106;28;20025;-74
2023/12/27 00:13:47;;;;;;;3.78;3.08;;;;;;;;;;2079140;28;20395;-75
2023/12/27 00:15:06;;;;;;;3.15;2.83;;;;;;;;;;2074964;28;20102;-75
2023/12/27 00:16:25;;;;;;;2.78;2.58;;;;;;;;;;2079838;28;20026;-74
2023/12/27 00:17:44;;;;;;;3.60;2.80;;;;;;;;;;2075525;28;20033;-74
2023/12/27 00:19:03;;;;;;;4.07;3.22;;;;;;;;;;2078677;28;20025;-74
2023/12/27 00:20:22;;;;;;;4.60;2.60;;;;;;;;;;2074138;28;20038;-74
2023/12/27 00:21:41;;;;;;;2.95;2.45;;;;;;;;;;2077949;28;20071;-76
2023/12/27 00:23:00;;;;;;;5.97;3.00;;;;;;;;;;2077512;28;20021;-74
2023/12/27 00:24:20;;;;;;;3.08;2.85;;;;;;;;;;2080628;28;20029;-74
2023/12/27 00:25:39;;;;;;;2.97;2.50;;;;;;;;;;2078862;28;20030;-74
2023/12/27 00:26:57;;;;;;;3.92;2.80;;;;;;;;;;2080239;28;20033;-75
2023/12/27 00:28:16;;;;;;;2.95;2.67;;;;;;;;;;2079568;28;20030;-74
2023/12/27 00:29:37;;;;;;;2.97;2.72;;;;;;;;;;2082052;28;20053;-74
2023/12/27 00:30:56;;;;;;;2.65;2.20;;;;;;;;;;2082327;28;20080;-74
2023/12/27 00:32:15;;;;;;;2.60;2.40;;;;;;;;;;2074896;28;20041;-74
2023/12/27 00:33:34;;;;;;;4.13;2.40;;;;;;;;;;2069022;28;20506;-74
2023/12/27 00:34:53;;;;;;;2.50;2.30;;;;;;;;;;2078512;28;20113;-74
2023/12/27 00:36:12;;;;;;;3.00;2.40;;;;;;;;;;2080566;28;20037;-74
2023/12/27 00:37:31;;;;;;;4.55;2.72;;;;;;;;;;2081558;28;20045;-74
2023/12/27 00:38:50;;;;;;;3.90;3.10;;;;;;;;;;2079803;28;20025;-74
2023/12/27 00:40:10;;;;;;;3.58;2.45;;;;;;;;;;2082320;28;20030;-74
2023/12/27 00:41:29;;;;;;;2.53;2.15;;;;;;;;;;2084128;28;20047;-74
2023/12/27 00:42:48;;;;;;;3.90;2.50;;;;;;;;;;2082011;28;20025;-75
2023/12/27 00:44:07;;;;;;;3.05;2.40;;;;;;;;;;2079719;28;20026;-74
2023/12/27 00:45:26;;;;;;;2.78;2.50;;;;;;;;;;2074818;28;20034;-74
2023/12/27 00:46:45;;;;;;;3.88;2.38;;;;;;;;;;2077461;28;20524;-74
2023/12/27 00:48:05;;;;;;;2.90;2.30;;;;;;;;;;2076769;28;20026;-75
2023/12/27 00:49:24;;;;;;;3.25;2.50;;;;;;;;;;2072955;28;20026;-74
2023/12/27 00:50:43;;;;;;;3.00;2.20;;;;;;;;;;2075909;28;20033;-74
2023/12/27 00:52:02;;;;;;;2.22;2.00;;;;;;;;;;2076298;28;20029;-75
2023/12/27 00:53:21;;;;;;;2.92;2.08;;;;;;;;;;2075440;28;20022;-74
2023/12/27 00:54:39;;;;;;;3.13;2.60;;;;;;;;;;2072429;28;20475;-75
2023/12/27 00:55:58;;;;;;;2.55;2.35;;;;;;;;;;2073603;28;20034;-74
2023/12/27 00:57:17;;;;;;;2.50;2.20;;;;;;;;;;2080018;28;20108;-75
2023/12/27 00:58:36;;;;;;;2.83;2.53;;;;;;;;;;2075569;28;20057;-74
2023/12/27 00:59:55;;;;;;;4.32;2.10;;;;;;;;;;2075707;28;20506;-75
2023/12/27 01:01:14;;;;;;;2.53;2.33;;;;;;;;;;2080636;28;20040;-75
2023/12/27 01:02:35;;;;;;;2.72;2.53;;;;;;;;;;2075819;28;20026;-74
2023/12/27 01:03:54;;;;;;;3.08;2.45;;;;;;;;;;2071262;28;20100;-75
2023/12/27 01:05:13;;;;;;;2.60;2.40;;;;;;;;;;2079548;28;20430;-74
2023/12/27 01:06:32;;;;;;;2.70;2.50;;;;;;;;;;2073364;28;20025;-74
2023/12/27 01:07:51;;;;;;;2.63;2.10;;;;;;;;;;2078036;28;20021;-75
2023/12/27 01:09:10;;;;;;;2.55;2.35;;;;;;;;;;2075458;28;20993;-74
2023/12/27 01:10:28;;;;;;;5.57;3.33;;;;;;;;;;2078496;28;20033;-74
2023/12/27 01:11:47;;;;;;;1.95;1.85;;;;;;;;;;2075654;28;20034;-74
2023/12/27 01:13:07;;;;;;;4.47;2.33;;;;;;;;;;2078650;28;20026;-75
2023/12/27 01:14:26;;;;;;;4.57;2.22;;;;;;;;;;2081420;28;20022;-75
2023/12/27 01:15:45;;;;;;;3.83;2.65;;;;;;;;;;2075430;28;20415;-74
2023/12/27 01:17:03;;;;;;;3.63;2.38;;;;;;;;;;2076187;28;20063;-75
2023/12/27 01:18:22;;;;;;;2.83;2.15;;;;;;;;;;2079567;28;20434;-74
2023/12/27 01:19:41;;;;;;;3.15;2.53;;;;;;;;;;2080541;28;20037;-75
2023/12/27 01:21:00;;;;;;;2.45;2.25;;;;;;;;;;2076617;28;20090;-74
2023/12/27 01:22:19;;;;;;;2.65;2.20;;;;;;;;;;2078759;28;20037;-75
2023/12/27 01:23:38;;;;;;;3.03;2.20;;;;;;;;;;2080535;28;20112;-74
2023/12/27 01:24:57;;;;;;;2.70;2.35;;;;;;;;;;2079005;28;20025;-75
2023/12/27 01:26:17;;;;;;;3.42;2.10;;;;;;;;;;2072094;28;20061;-75
2023/12/27 01:27:36;;;;;;;2.63;2.42;;;;;;;;;;2075477;28;20034;-75
2023/12/27 01:28:55;;;;;;;2.70;1.80;;;;;;;;;;2079458;28;20387;-75
2023/12/27 01:30:14;;;;;;;2.60;2.08;;;;;;;;;;2074591;28;20037;-75
2023/12/27 01:31:33;;;;;;;2.22;2.03;;;;;;;;;;2075858;28;20029;-75
2023/12/27 01:32:52;;;;;;;2.28;1.98;;;;;;;;;;2072749;28;20034;-75
2023/12/27 01:34:11;;;;;;;3.72;2.40;;;;;;;;;;2079296;28;20025;-75
2023/12/27 01:35:30;;;;;;;3.63;1.83;;;;;;;;;;2076404;28;20117;-77
2023/12/27 01:36:48;;;;;;;1.70;1.60;;;;;;;;;;2077147;28;20080;-75
2023/12/27 01:38:07;;;;;;;2.40;1.95;;;;;;;;;;2076357;28;20037;-75
2023/12/27 01:39:27;;;;;;;2.05;1.85;;;;;;;;;;2076813;28;20025;-77
2023/12/27 01:40:51;;;;;;;2.30;2.10;;;;;;;;;;2080746;28;20033;-75
2023/12/27 01:42:11;;;;;;;3.05;1.92;;;;;;;;;;2073772;28;20503;-74
2023/12/27 01:43:29;;;;;;;2.42;1.80;;;;;;;;;;2078175;28;20033;-75
2023/12/27 01:44:49;;;;;;;1.92;1.55;;;;;;;;;;2075884;28;20029;-75
2023/12/27 01:46:08;;;;;;;2.95;2.10;;;;;;;;;;2080669;28;20025;-75
2023/12/27 01:47:27;;;;;;;1.90;1.67;;;;;;;;;;2091032;28;20037;-75
2023/12/27 01:48:46;;;;;;;2.42;2.22;;;;;;;;;;2084439;28;20010;-76
2023/12/27 01:50:08;;;;;;;3.00;1.65;;;;;;;;;;2079750;28;20030;-77
2023/12/27 01:51:27;;;;;;;2.22;1.98;;;;;;;;;;2088907;28;20029;-76
2023/12/27 01:52:46;;;;;;;2.33;2.10;;;;;;;;;;2083689;28;20443;-76
2023/12/27 01:54:05;;;;;;;2.38;2.15;;;;;;;;;;2077087;28;20478;-74
2023/12/27 01:55:24;;;;;;;2.22;1.98;;;;;;;;;;2079851;28;20029;-75
2023/12/27 01:56:45;;;;;;;1.95;1.70;;;;;;;;;;2081797;28;20463;-75
2023/12/27 01:58:08;;;;;;;3.20;1.60;;;;;;;;;;2089283;28;20026;-75
2023/12/27 01:59:27;;;;;;;2.40;1.80;;;;;;;;;;2083935;28;20018;-76
2023/12/27 02:00:49;;;;;;;3.25;2.20;;;;;;;;;;2087122;28;20043;-75
2023/12/27 02:02:08;;;;;;;2.13;1.85;;;;;;;;;;2084663;28;20050;-77
2023/12/27 02:03:27;;;;;;;2.90;2.08;;;;;;;;;;2081310;28;20045;-75
2023/12/27 02:04:47;;;;;;;2.40;1.90;;;;;;;;;;2085422;28;20022;-75
2023/12/27 02:06:06;;;;;;;1.98;1.85;;;;;;;;;;2079217;28;20932;-74
2023/12/27 02:07:24;;;;;;;3.20;1.70;;;;;;;;;;2075009;28;20034;-75
2023/12/27 02:08:43;;;;;;;3.15;2.08;;;;;;;;;;2078910;28;20041;-75
2023/12/27 02:10:03;;;;;;;2.30;1.73;;;;;;;;;;2075273;28;20033;-76
2023/12/27 02:11:22;;;;;;;1.50;1.40;;;;;;;;;;2078429;28;20037;-74
2023/12/27 02:12:41;;;;;;;2.80;1.90;;;;;;;;;;2081624;28;20017;-76
2023/12/27 02:14:00;;;;;;;1.90;1.70;;;;;;;;;;2074868;28;20050;-75
2023/12/27 02:15:19;;;;;;;1.70;1.50;;;;;;;;;;2073118;28;20079;-75
2023/12/27 02:16:38;;;;;;;2.22;2.03;;;;;;;;;;2068572;28;20042;-75
2023/12/27 02:18:01;;;;;;;3.53;1.95;;;;;;;;;;2079398;28;20017;-75
2023/12/27 02:19:21;;;;;;;2.85;1.90;;;;;;;;;;2068897;28;20518;-75
2023/12/27 02:20:40;;;;;;;2.10;1.90;;;;;;;;;;2075816;28;20464;-74
2023/12/27 02:22:00;;;;;;;2.45;1.75;;;;;;;;;;2073990;28;20022;-75
2023/12/27 02:23:20;;;;;;;1.52;1.42;;;;;;;;;;2070203;28;20481;-75
2023/12/27 02:24:39;;;;;;;2.05;1.83;;;;;;;;;;2076707;28;20109;-75
2023/12/27 02:25:58;;;;;;;2.17;1.88;;;;;;;;;;2074384;28;20026;-74
2023/12/27 02:27:17;;;;;;;1.92;1.58;;;;;;;;;;2074467;28;20033;-75
2023/12/27 02:28:36;;;;;;;1.58;1.48;;;;;;;;;;2078178;28;20041;-75
2023/12/27 02:29:55;;;;;;;1.63;1.52;;;;;;;;;;2078829;28;20029;-74
2023/12/27 02:31:14;;;;;;;2.10;1.70;;;;;;;;;;2073842;28;20066;-74
2023/12/27 02:32:33;;;;;;;2.00;1.70;;;;;;;;;;2077857;28;20021;-75
2023/12/27 02:33:52;;;;;;;2.05;1.60;;;;;;;;;;2074109;28;20026;-76
2023/12/27 02:35:11;;;;;;;1.98;1.52;;;;;;;;;;2076722;28;20100;-75
2023/12/27 02:36:30;;;;;;;1.98;1.63;;;;;;;;;;2080361;28;20034;-74
2023/12/27 02:37:48;;;;;;;3.38;1.80;;;;;;;;;;2075679;28;20041;-74
2023/12/27 02:39:07;;;;;;;2.10;1.60;;;;;;;;;;2078701;28;20065;-74
2023/12/27 02:40:26;;;;;;;3.35;1.70;;;;;;;;;;2079147;28;20029;-74
2023/12/27 02:41:46;;;;;;;2.20;1.63;;;;;;;;;;2073239;28;20038;-74
2023/12/27 02:43:05;;;;;;;2.13;1.73;;;;;;;;;;2077760;28;20037;-75
2023/12/27 02:44:26;;;;;;;1.77;1.67;;;;;;;;;;2075651;28;20028;-76
2023/12/27 02:45:45;;;;;;;2.25;1.58;;;;;;;;;;2078492;28;20033;-74
2023/12/27 02:47:06;;;;;;;2.22;1.90;;;;;;;;;;2078736;28;20026;-75
2023/12/27 02:48:25;;;;;;;2.58;1.83;;;;;;;;;;2079711;28;20026;-75
2023/12/27 02:49:44;;;;;;;1.92;1.40;;;;;;;;;;2076532;28;20523;-75
2023/12/27 02:51:02;;;;;;;1.70;1.42;;;;;;;;;;2068533;28;20119;-76
2023/12/27 02:52:21;;;;;;;3.83;1.70;;;;;;;;;;2077695;28;20060;-75
2023/12/27 02:53:40;;;;;;;1.50;1.25;;;;;;;;;;2078084;28;20029;-75
2023/12/27 02:54:59;;;;;;;2.35;2.13;;;;;;;;;;2074665;28;20038;-75
2023/12/27 02:56:18;;;;;;;1.73;1.63;;;;;;;;;;2079316;28;20395;-75
2023/12/27 02:57:36;;;;;;;1.52;1.35;;;;;;;;;;2074934;28;20038;-76
2023/12/27 02:58:55;;;;;;;1.27;1.08;;;;;;;;;;2077221;28;20029;-74
2023/12/27 03:00:14;;;;;;;2.72;1.05;;;;;;;;;;2079123;28;20415;-74
2023/12/27 03:01:33;;;;;;;1.95;1.60;;;;;;;;;;2068317;28;20025;-75
2023/12/27 03:02:52;;;;;;;1.50;1.40;;;;;;;;;;2070013;28;20546;-75
2023/12/27 03:04:11;;;;;;;1.77;1.25;;;;;;;;;;2078736;28;20100;-75
2023/12/27 03:05:30;;;;;;;1.50;1.40;;;;;;;;;;2075316;28;20030;-75
2023/12/27 03:06:50;;;;;;;1.73;1.55;;;;;;;;;;2074568;28;20499;-75
2023/12/27 03:08:08;;;;;;;2.20;1.20;;;;;;;;;;2073630;28;20042;-75
2023/12/27 03:09:27;;;;;;;2.25;1.40;;;;;;;;;;2077302;28;20041;-76
2023/12/27 03:10:46;;;;;;;1.20;1.10;;;;;;;;;;2075885;28;20526;-75
2023/12/27 03:12:06;;;;;;;1.40;1.30;;;;;;;;;;2077774;28;20105;-75
2023/12/27 03:13:25;;;;;;;1.50;1.25;;;;;;;;;;2079477;28;20029;-75
2023/12/27 03:14:43;;;;;;;1.20;0.90;;;;;;;;;;2078587;28;20025;-75
2023/12/27 03:16:06;;;;;;;1.63;1.25;;;;;;;;;;2079971;28;20033;-75
2023/12/27 03:17:25;;;;;;;1.65;1.33;;;;;;;;;;2079370;28;20033;-75
2023/12/27 03:18:44;;;;;;;1.15;1.05;;;;;;;;;;2079237;28;20395;-75
2023/12/27 03:20:03;;;;;;;1.00;1.00;;;;;;;;;;2079607;28;20022;-74
2023/12/27 03:21:22;;;;;;;1.35;0.93;;;;;;;;;;2074555;28;20112;-75
2023/12/27 03:22:41;;;;;;;1.35;1.25;;;;;;;;;;2070925;28;20108;-75
2023/12/27 03:24:00;;;;;;;1.35;1.08;;;;;;;;;;2070274;28;20028;-76
2023/12/27 03:25:19;;;;;;;1.25;1.15;;;;;;;;;;2065511;28;20492;-76
2023/12/27 03:26:38;;;;;;;1.10;1.00;;;;;;;;;;2075684;28;20108;-75
2023/12/27 03:27:57;;;;;;;1.10;1.00;;;;;;;;;;2076527;28;20112;-74
2023/12/27 03:29:16;;;;;;;2.20;1.05;;;;;;;;;;2076545;28;20069;-75
2023/12/27 03:30:35;;;;;;;5.45;1.23;;;;;;;;;;2075078;28;20061;-75
2023/12/27 03:31:54;;;;;;;2.15;0.90;;;;;;;;;;2071743;28;21541;-75
2023/12/27 03:33:12;;;;;;;0.73;0.70;;;;;;;;;;2078677;28;20550;-75
2023/12/27 03:34:31;;;;;;;0.80;0.80;;;;;;;;;;2075342;28;20042;-75
2023/12/27 03:35:50;;;;;;;1.63;0.98;;;;;;;;;;2077930;28;20394;-75
2023/12/27 03:37:09;;;;;;;1.27;1.00;;;;;;;;;;2078189;28;20037;-75
2023/12/27 03:38:28;;;;;;;2.35;0.98;;;;;;;;;;2078786;28;20037;-74
2023/12/27 03:39:50;;;;;;;1.13;0.90;;;;;;;;;;2079562;28;20042;-75
2023/12/27 03:41:09;;;;;;;2.67;0.90;;;;;;;;;;2078764;28;20029;-77
2023/12/27 03:42:28;;;;;;;2.47;1.05;;;;;;;;;;2076122;28;20022;-75
2023/12/27 03:43:47;;;;;;;1.48;0.90;;;;;;;;;;2077739;28;20398;-76
2023/12/27 03:45:06;;;;;;;0.60;0.60;;;;;;;;;;2074901;28;20491;-75
2023/12/27 03:46:26;;;;;;;3.22;0.70;;;;;;;;;;2065353;28;20035;-76
2023/12/27 03:47:45;;;;;;;3.00;0.98;;;;;;;;;;2067592;28;20100;-75
2023/12/27 03:49:04;;;;;;;0.82;0.63;;;;;;;;;;2070757;28;20145;-74
2023/12/27 03:50:23;;;;;;;1.27;0.90;;;;;;;;;;2079028;28;20061;-75
2023/12/27 03:51:42;;;;;;;1.65;0.80;;;;;;;;;;2084069;28;20498;-75
2023/12/27 03:53:01;;;;;;;0.88;0.70;;;;;;;;;;2082318;28;20483;-75
2023/12/27 03:54:20;;;;;;;0.90;0.60;;;;;;;;;;2081007;28;20041;-75
2023/12/27 03:55:41;;;;;;;1.10;0.80;;;;;;;;;;2080138;28;20033;-75
2023/12/27 03:57:00;;;;;;;0.70;0.57;;;;;;;;;;2083591;28;20040;-75
2023/12/27 03:58:19;;;;;;;0.93;0.77;;;;;;;;;;2075338;28;20045;-74
2023/12/27 03:59:38;;;;;;;1.77;0.95;;;;;;;;;;2078192;28;20038;-75
2023/12/27 04:00:58;;;;;;;1.10;1.00;;;;;;;;;;2080014;28;20038;-75
2023/12/27 04:02:17;;;;;;;0.73;0.60;;;;;;;;;;2081825;28;20038;-75
2023/12/27 04:03:36;;;;;;;0.70;0.70;;;;;;;;;;2080386;28;20033;-74
2023/12/27 04:04:55;;;;;;;0.40;0.40;;;;;;;;;;2080291;28;20021;-75
2023/12/27 04:06:18;;;;;;;0.60;0.60;;;;;;;;;;2079680;28;20029;-75
2023/12/27 04:07:37;;;;;;;;;;;;;;;;;;2081416;28;20022;-75
2023/12/27 04:08:56;;;;;;;0.95;0.60;;;;;;;;;;2077838;28;19992;-75
2023/12/27 04:10:15;;;;;;;0.60;0.57;;;;;;;;;;2080440;28;20022;-74
2023/12/27 04:11:41;;;;;;;0.60;0.50;;;;;;;;;;2078343;28;20025;-74
2023/12/27 04:13:01;;;;;;;0.90;0.80;;;;;;;;;;2081038;28;20041;-75
2023/12/27 04:14:19;;;;;;;1.02;0.70;;;;;;;;;;2082398;28;20030;-75
2023/12/27 04:15:38;;;;;;;1.52;0.85;;;;;;;;;;2076158;28;20030;-75
2023/12/27 04:16:57;;;;;;;1.65;0.93;;;;;;;;;;2071926;28;20458;-75
2023/12/27 04:18:16;;;;;;;1.55;0.80;;;;;;;;;;2079769;28;20516;-75
2023/12/27 04:19:35;;;;;;;0.77;0.60;;;;;;;;;;2074641;28;20026;-75
2023/12/27 04:20:53;;;;;;;1.75;0.40;;;;;;;;;;2078898;28;20525;-74
2023/12/27 04:22:12;;;;;;;1.17;0.70;;;;;;;;;;2076192;28;20503;-75
2023/12/27 04:23:31;;;;;;;0.65;0.65;;;;;;;;;;2077331;28;20034;-75
2023/12/27 04:24:50;;;;;;;0.70;0.70;;;;;;;;;;2076225;28;20025;-74
2023/12/27 04:26:09;;;;;;;0.57;0.50;;;;;;;;;;2080256;28;20029;-75
2023/12/27 04:27:28;;;;;;;1.13;0.90;;;;;;;;;;2075097;28;20026;-75
2023/12/27 04:28:47;;;;;;;2.22;0.63;;;;;;;;;;2065866;28;20042;-75
2023/12/27 04:30:07;;;;;;;1.42;0.65;;;;;;;;;;2068419;28;21035;-75
2023/12/27 04:31:26;;;;;;;1.42;0.50;;;;;;;;;;2071600;28;20502;-74
2023/12/27 04:32:45;;;;;;;0.68;0.55;;;;;;;;;;2080794;28;20038;-75
2023/12/27 04:34:04;;;;;;;0.90;0.63;;;;;;;;;;2076515;28;20112;-74
2023/12/27 04:35:23;;;;;;;1.35;0.88;;;;;;;;;;2076100;28;20506;-74
2023/12/27 04:36:42;;;;;;;1.98;0.43;;;;;;;;;;2078838;28;20061;-75
2023/12/27 04:38:01;;;;;;;0.52;0.50;;;;;;;;;;2076123;28;20414;-74
2023/12/27 04:39:20;;;;;;;0.60;0.60;;;;;;;;;;2072101;28;20026;-74
2023/12/27 04:40:39;;;;;;;1.73;0.80;;;;;;;;;;2073300;28;20026;-75
2023/12/27 04:41:58;;;;;;;1.10;0.50;;;;;;;;;;2078480;28;20051;-76
2023/12/27 04:43:17;;;;;;;0.65;0.50;;;;;;;;;;2075066;28;20025;-74
2023/12/27 04:44:36;;;;;;;1.70;0.50;;;;;;;;;;2075111;28;20025;-76
2023/12/27 04:45:55;;;;;;;0.60;0.60;;;;;;;;;;2074240;28;20021;-75
2023/12/27 04:47:14;;;;;;;1.35;0.70;;;;;;;;;;2079099;28;20472;-74
2023/12/27 04:48:33;;;;;;;0.60;0.60;;;;;;;;;;2072985;28;20033;-76
2023/12/27 04:49:52;;;;;;;1.30;0.70;;;;;;;;;;2079974;28;20029;-74
2023/12/27 04:51:12;;;;;;;0.80;0.80;;;;;;;;;;2081261;28;20026;-76
2023/12/27 04:52:31;;;;;;;1.08;0.60;;;;;;;;;;2076037;28;20068;-77
2023/12/27 04:53:50;;;;;;;1.23;1.00;;;;;;;;;;2076298;28;20495;-75
2023/12/27 04:55:09;;;;;;;0.60;0.55;;;;;;;;;;2080638;28;20164;-76
2023/12/27 04:56:28;;;;;;;0.73;0.73;;;;;;;;;;2074563;28;20553;-78
2023/12/27 04:57:47;;;;;;;1.10;0.70;;;;;;;;;;2080548;28;20398;-76
2023/12/27 04:59:06;;;;;;;0.82;0.50;;;;;;;;;;2081757;28;20494;-76
2023/12/27 05:00:25;;;;;;;0.77;0.57;;;;;;;;;;2080220;28;20037;-76
2023/12/27 05:01:44;;;;;;;0.50;0.50;;;;;;;;;;2080213;28;20026;-76
2023/12/27 05:03:03;;;;;;;2.47;0.93;;;;;;;;;;2073812;28;20013;-76
2023/12/27 05:04:22;;;;;;;0.70;0.68;;;;;;;;;;2077222;28;20056;-77
2023/12/27 05:05:41;;;;;;;0.73;0.60;;;;;;;;;;2076551;28;20026;-76
2023/12/27 05:06:59;;;;;;;0.85;0.40;;;;;;;;;;2072690;28;20030;-76
2023/12/27 05:08:19;;;;;;;0.50;0.50;;;;;;;;;;2075766;28;20510;-77
2023/12/27 05:09:39;;;;;;;0.52;0.52;;;;;;;;;;2079392;28;20037;-76
2023/12/27 05:10:57;;;;;;;0.50;0.50;;;;;;;;;;2080470;28;20034;-76
2023/12/27 05:12:17;;;;;;;0.45;0.45;;;;;;;;;;2081134;28;20041;-78
2023/12/27 05:13:36;;;;;;;3.08;0.60;;;;;;;;;;2081525;28;20101;-76
2023/12/27 05:14:55;;;;;;;1.75;0.82;;;;;;;;;;2081189;28;20152;-76
2023/12/27 05:16:15;;;;;;;1.05;0.80;;;;;;;;;;2073978;28;20037;-78
2023/12/27 05:17:34;;;;;;;0.77;0.47;;;;;;;;;;2078260;28;20029;-77
2023/12/27 05:18:53;;;;;;;0.60;0.50;;;;;;;;;;2076214;28;20486;-76
2023/12/27 05:20:13;;;;;;;1.08;0.45;;;;;;;;;;2078743;28;20026;-76
2023/12/27 05:21:32;;;;;;;1.55;0.68;;;;;;;;;;2081191;28;20059;-76
2023/12/27 05:22:51;;;;;;;1.52;0.60;;;;;;;;;;2075540;28;20025;-77
2023/12/27 05:24:10;;;;;;;0.93;0.70;;;;;;;;;;2078435;28;20021;-76
2023/12/27 05:25:29;;;;;;;1.00;0.63;;;;;;;;;;2080322;28;20030;-77
2023/12/27 05:26:47;;;;;;;1.20;0.50;;;;;;;;;;2073339;28;20980;-76
2023/12/27 05:28:06;;;;;;;0.50;0.45;;;;;;;;;;2076619;28;20030;-77
2023/12/27 05:29:25;;;;;;;2.10;0.70;;;;;;;;;;2076852;28;20049;-77
2023/12/27 05:30:44;;;;;;;0.43;0.43;;;;;;;;;;2081933;28;20053;-77
2023/12/27 05:32:04;;;;;;;0.60;0.50;;;;;;;;;;2083806;28;20034;-77
2023/12/27 05:33:24;;;;;;;2.63;0.55;;;;;;;;;;2087492;28;20043;-78
2023/12/27 05:34:43;;;;;;;0.88;0.70;;;;;;;;;;2090323;28;20022;-77
2023/12/27 05:36:03;;;;;;;3.00;0.50;;;;;;;;;;2089711;28;20045;-76
2023/12/27 05:37:21;;;;;;;1.05;0.60;;;;;;;;;;2083331;28;20030;-76
2023/12/27 05:38:41;;;;;;;0.40;0.40;;;;;;;;;;2076252;28;20034;-76
2023/12/27 05:40:00;;;;;;;1.65;0.65;;;;;;;;;;2079873;28;20045;-77
2023/12/27 05:41:24;;;;;;;1.30;0.60;;;;;;;;;;2083257;28;20033;-77
2023/12/27 05:42:43;;;;;;;2.60;0.70;;;;;;;;;;2084758;28;20486;-77
2023/12/27 05:44:03;;;;;;;0.65;0.50;;;;;;;;;;2085654;28;20157;-77
2023/12/27 05:45:22;;;;;;;1.38;0.60;;;;;;;;;;2089268;28;20127;-78
2023/12/27 05:46:42;;;;;;;1.92;0.50;;;;;;;;;;2090389;28;20042;-77
2023/12/27 05:48:01;;;;;;;0.75;0.43;;;;;;;;;;2086221;28;20049;-76
2023/12/27 05:49:20;;;;;;;2.60;0.45;;;;;;;;;;2084701;28;20478;-76
2023/12/27 05:50:39;;;;;;;1.23;0.45;;;;;;;;;;2083673;28;20049;-76
2023/12/27 05:51:58;;;;;;;0.63;0.40;;;;;;;;;;2083196;28;20026;-76
2023/12/27 05:53:17;;;;;;;0.90;0.22;;;;;;;;;;2076048;28;20025;-77
2023/12/27 05:54:36;;;;;;;3.40;0.50;;;;;;;;;;2074015;28;20568;-76
2023/12/27 05:55:55;;;;;;;1.00;0.50;;;;;;;;;;2078004;28;20018;-77
2023/12/27 05:57:14;;;;;;;1.17;0.50;;;;;;;;;;2074579;28;20022;-76
2023/12/27 05:58:32;;;;;;;0.40;0.40;;;;;;;;;;2078880;28;20045;-76
2023/12/27 05:59:51;;;;;;;2.22;0.60;;;;;;;;;;2075011;28;20481;-77
2023/12/27 06:01:10;;;;;;;0.52;0.40;;;;;;;;;;2072237;28;20057;-77
2023/12/27 06:02:32;;;;;;;2.90;0.35;;;;;;;;;;2071345;28;20037;-77
2023/12/27 06:03:51;;;;;;;0.30;0.30;;;;;;;;;;2076066;28;20026;-76
2023/12/27 06:05:10;;;;;;;0.47;0.22;;;;;;;;;;2071138;28;20347;-75
2023/12/27 06:06:29;;;;;;;1.02;0.57;;;;;;;;;;2078220;28;20116;-74
2023/12/27 06:07:49;;;;;;;0.95;0.40;;;;;;;;;;2078873;28;20037;-75
2023/12/27 06:09:08;;;;;;;1.38;0.50;;;;;;;;;;2074815;28;20026;-75
2023/12/27 06:10:28;;;;;;;1.15;0.50;;;;;;;;;;2079884;28;20033;-75
2023/12/27 06:11:47;;;;;;;1.15;0.60;;;;;;;;;;2079593;28;20478;-74
2023/12/27 06:13:06;;;;;;;1.08;0.38;;;;;;;;;;2079439;28;20025;-75
2023/12/27 06:14:25;;;;;;;0.50;0.47;;;;;;;;;;2080212;28;20029;-75
2023/12/27 06:15:44;;;;;;;1.77;0.98;;;;;;;;;;2080421;28;20065;-75
2023/12/27 06:17:03;;;;;;;0.90;0.50;;;;;;;;;;2080927;28;20034;-75
2023/12/27 06:18:22;;;;;;;1.30;0.60;;;;;;;;;;2075239;28;20038;-75
2023/12/27 06:19:41;;;;;;;0.30;0.30;;;;;;;;;;2079396;28;20108;-75
2023/12/27 06:21:00;;;;;;;1.73;0.43;;;;;;;;;;2074192;28;20026;-76
2023/12/27 06:22:19;;;;;;;0.82;0.55;;;;;;;;;;2072406;28;20052;-75
2023/12/27 06:23:41;;;;;;;0.47;0.30;;;;;;;;;;2075864;28;20038;-76
2023/12/27 06:25:00;;;;;;;2.55;0.80;;;;;;;;;;2080241;28;20421;-74
2023/12/27 06:26:19;;;;;;;0.40;0.30;;;;;;;;;;2075922;28;20046;-75
2023/12/27 06:27:39;;;;;;;0.63;0.47;;;;;;;;;;2078455;28;20026;-75
2023/12/27 06:28:58;;;;;;;1.13;0.30;;;;;;;;;;2075800;28;20029;-75
2023/12/27 06:30:17;;;;;;;2.28;0.65;;;;;;;;;;2071800;28;20467;-75
2023/12/27 06:31:36;;;;;;;0.40;0.40;;;;;;;;;;2077623;28;20034;-75
2023/12/27 06:32:55;;;;;;;0.95;0.40;;;;;;;;;;2080738;28;20017;-75
2023/12/27 06:34:14;;;;;;;0.50;0.40;;;;;;;;;;2081601;28;20033;-75
2023/12/27 06:35:33;;;;;;;2.08;0.47;;;;;;;;;;2078276;28;20030;-75
2023/12/27 06:36:52;;;;;;;3.15;0.70;;;;;;;;;;2074307;28;20030;-75
2023/12/27 06:38:11;;;;;;;0.35;0.30;;;;;;;;;;2074633;28;20526;-74
2023/12/27 06:39:31;;;;;;;0.52;0.50;;;;;;;;;;2079348;28;20041;-74
2023/12/27 06:40:50;;;;;;;0.43;0.10;;;;;;;;;;2078256;28;20097;-75
2023/12/27 06:42:09;;;;;;;3.20;0.50;;;;;;;;;;2079440;28;20033;-76
2023/12/27 06:43:27;;;;;;;0.73;0.50;;;;;;;;;;2073293;28;20072;-75
2023/12/27 06:44:46;;;;;;;1.35;0.40;;;;;;;;;;2073816;28;20487;-75
2023/12/27 06:46:05;;;;;;;4.38;0.70;;;;;;;;;;2079110;28;20045;-75
2023/12/27 06:47:24;;;;;;;0.85;0.80;;;;;;;;;;2072166;28;20034;-76
2023/12/27 06:48:43;;;;;;;4.15;0.30;;;;;;;;;;2075636;28;20037;-75
2023/12/27 06:50:03;;;;;;;1.85;0.45;;;;;;;;;;2075358;28;20038;-74
2023/12/27 06:51:22;;;;;;;0.65;0.30;;;;;;;;;;2069124;28;20076;-75
2023/12/27 06:52:41;;;;;;;1.30;0.93;;;;;;;;;;2073476;28;20033;-76
2023/12/27 06:54:00;;;;;;;0.52;0.52;;;;;;;;;;2072499;28;20514;-75
2023/12/27 06:55:19;;;;;;;4.80;0.60;;;;;;;;;;2077453;28;20086;-75
2023/12/27 06:56:39;;;;;;;2.00;0.50;;;;;;;;;;2075320;28;20046;-75
2023/12/27 06:57:59;;;;;;;0.82;0.40;;;;;;;;;;2070339;28;20042;-75
2023/12/27 06:59:19;;;;;;;1.38;0.47;;;;;;;;;;2076121;28;20029;-75
2023/12/27 07:00:38;;;;;;;1.10;0.30;;;;;;;;;;2075896;28;20025;-75
2023/12/27 07:01:57;;;;;;;1.83;0.70;;;;;;;;;;2080219;28;20084;-75
2023/12/27 07:03:16;;;;;;;1.50;0.70;;;;;;;;;;2080411;28;20343;-74
2023/12/27 07:04:37;;;;;;;2.55;0.47;;;;;;;;;;2079666;28;20037;-75
2023/12/27 07:05:56;;;;;;;0.63;0.40;;;;;;;;;;2071609;28;20023;-75
2023/12/27 07:07:14;;;;;;;1.05;0.55;;;;;;;;;;2065130;28;20105;-75
2023/12/27 07:08:34;;;;;;;1.10;0.40;;;;;;;;;;2076148;28;20033;-75
2023/12/27 07:09:52;;;;;;;0.40;0.30;;;;;;;;;;2073273;28;20535;-75
2023/12/27 07:11:18;;;;;;;2.30;0.93;;;;;;;;;;2070911;28;20034;-75
2023/12/27 07:12:38;;;;;;;1.85;0.43;;;;;;;;;;2075858;28;20021;-75
2023/12/27 07:13:57;;;;;;;0.52;0.30;;;;;;;;;;2078679;28;20029;-75
2023/12/27 07:15:16;;;;;;;2.47;0.40;;;;;;;;;;2079719;28;20080;-74
2023/12/27 07:16:35;;;;;;;1.90;0.50;;;;;;;;;;2079947;28;20399;-75
2023/12/27 07:17:54;;;;;;;0.95;0.40;;;;;;;;;;2080777;28;20499;-74
2023/12/27 07:19:13;;;;;;;2.70;0.50;;;;;;;;;;2078999;28;20037;-77
2023/12/27 07:20:32;;;;;;;1.25;0.50;;;;;;;;;;2074028;28;20022;-75
2023/12/27 07:21:51;;;;;;;1.00;0.20;;;;;;;;;;2077222;28;20100;-74
2023/12/27 07:23:10;;;;;;;2.83;0.57;;;;;;;;;;2072738;28;20030;-75
2023/12/27 07:24:29;;;;;;;0.85;0.40;;;;;;;;;;2071511;28;20026;-75
2023/12/27 07:25:48;;;;;;;1.00;0.30;;;;;;;;;;2077711;28;20112;-77
2023/12/27 07:27:09;;;;;;;1.67;0.40;;;;;;;;;;2080477;28;20025;-75
2023/12/27 07:28:29;;;;;;;2.40;0.57;;;;;;;;;;2079718;28;20057;-75
2023/12/27 07:29:48;;;;;;;1.08;0.40;;;;;;;;;;2074191;28;20034;-75
2023/12/27 07:31:07;;;;;;;1.38;0.50;;;;;;;;;;2079040;28;20041;-75
2023/12/27 07:32:26;;;;;;;1.27;0.35;;;;;;;;;;2074877;28;20033;-77
2023/12/27 07:33:44;;;;;;;1.02;0.43;;;;;;;;;;2076508;28;20037;-75
2023/12/27 07:35:04;;;;;;;1.95;0.55;;;;;;;;;;2079774;28;20655;-75
2023/12/27 07:36:23;;;;;;;1.48;0.50;;;;;;;;;;2080476;28;20408;-76
2023/12/27 07:37:42;;;;;;;1.45;0.50;;;;;;;;;;2073264;28;20510;-76
2023/12/27 07:39:01;;;;;;;2.08;0.40;;;;;;;;;;2077107;28;20029;-75
2023/12/27 07:40:20;;;;;;;2.58;0.70;;;;;;;;;;2074498;28;20078;-75
2023/12/27 07:41:38;;;;;;;1.88;0.82;;;;;;;;;;2068472;28;20487;-74
2023/12/27 07:42:57;;;;;;;0.68;0.30;;;;;;;;;;2077846;28;20037;-78
2023/12/27 07:44:16;;;;;;;0.63;0.40;;;;;;;;;;2074383;28;20037;-75
2023/12/27 07:45:35;;;;;;;1.05;0.38;;;;;;;;;;2078967;28;20406;-74
2023/12/27 07:46:55;;;;;;;0.80;0.40;;;;;;;;;;2071626;28;20026;-74
2023/12/27 07:48:14;;;;;;;3.53;0.45;;;;;;;;;;2072546;28;20106;-75
2023/12/27 07:49:33;;;;;;;1.40;0.80;;;;;;;;;;2075723;28;20030;-75
2023/12/27 07:50:52;;;;;;;1.98;0.43;;;;;;;;;;2079714;28;20053;-76
2023/12/27 07:52:11;;;;;;;1.33;1.23;;;;;;;;;;2075171;28;20022;-75
2023/12/27 07:53:31;;;;;;;1.73;0.50;;;;;;;;;;2071442;28;20034;-75
2023/12/27 07:54:50;;;;;;;0.73;0.50;;;;;;;;;;2070368;28;20030;-74